createdAt,value
2022-12-11T00:01:09.646Z,69.85
2022-12-11T00:02:11.754Z,65.95
2022-12-11T00:03:16.104Z,60.20
2022-12-11T00:04:18.348Z,65.20
2022-12-11T00:05:19.989Z,64.18
2022-12-11T00:06:23.422Z,68.18
2022-12-11T00:07:25.083Z,70.90
2022-12-11T00:08:27.000Z,65.97
2022-12-11T00:09:28.884Z,67.00
2022-12-11T00:10:34.626Z,61.58
2022-12-11T00:11:39.412Z,62.15
2022-12-11T00:12:41.313Z,63.47
2022-12-11T00:13:43.571Z,68.10
2022-12-11T00:14:45.184Z,72.78
2022-12-11T00:15:47.102Z,70.43
2022-12-11T00:16:50.073Z,65.00
2022-12-11T00:17:52.084Z,61.40
2022-12-11T00:18:56.395Z,73.35
2022-12-11T00:19:58.473Z,72.95
2022-12-11T00:21:04.893Z,75.03
2022-12-11T00:22:07.796Z,67.10
2022-12-11T00:23:11.475Z,74.38
2022-12-11T00:24:13.027Z,82.63
2022-12-11T00:25:14.856Z,73.90
2022-12-11T00:26:16.659Z,70.85
2022-12-11T00:27:19.005Z,78.78
2022-12-11T00:28:20.610Z,76.72
2022-12-11T00:29:22.180Z,95.75
2022-12-11T00:30:24.664Z,95.70
2022-12-11T00:31:29.275Z,121.50
2022-12-11T00:32:36.220Z,110.03
2022-12-11T00:33:39.553Z,75.10
2022-12-11T00:34:41.193Z,71.35
2022-12-11T00:35:46.216Z,85.15
2022-12-11T00:36:48.110Z,94.15
2022-12-11T00:37:49.717Z,90.13
2022-12-11T00:38:52.059Z,80.95
2022-12-11T00:39:53.892Z,116.68
2022-12-11T00:40:59.909Z,107.63
2022-12-11T00:42:01.880Z,90.20
2022-12-11T00:43:04.119Z,92.93
2022-12-11T00:44:05.825Z,77.13
2022-12-11T00:45:08.151Z,71.70
2022-12-11T00:46:10.686Z,63.97
2022-12-11T00:47:12.719Z,67.20
2022-12-11T00:48:14.501Z,77.57
2022-12-11T00:49:16.106Z,84.32
2022-12-11T00:50:19.309Z,67.00
2022-12-11T00:51:21.311Z,74.05
2022-12-11T00:52:23.330Z,68.53
2022-12-11T00:53:25.033Z,63.63
2022-12-11T00:54:26.667Z,65.13
2022-12-11T00:55:29.516Z,64.60
2022-12-11T00:56:31.201Z,64.35
2022-12-11T00:57:33.463Z,59.78
2022-12-11T00:58:35.136Z,57.00
2022-12-11T00:59:36.717Z,59.20
2022-12-11T01:00:39.500Z,59.53
2022-12-11T01:01:41.601Z,59.25
2022-12-11T01:02:44.032Z,52.45
2022-12-11T01:03:46.046Z,55.58
2022-12-11T01:04:47.752Z,56.85
2022-12-11T01:05:56.945Z,59.10
2022-12-11T01:06:58.636Z,52.80
2022-12-11T01:08:00.841Z,54.80
2022-12-11T01:09:21.109Z,55.20
2022-12-11T01:10:25.799Z,55.15
2022-12-11T01:11:27.611Z,50.75
2022-12-11T01:12:29.252Z,54.15
2022-12-11T01:13:34.403Z,50.25
2022-12-11T01:14:36.048Z,50.13
2022-12-11T01:15:43.900Z,49.63
2022-12-11T01:16:45.959Z,53.20
2022-12-11T01:17:47.556Z,50.58
2022-12-11T01:18:49.140Z,44.72
2022-12-11T01:19:50.667Z,50.90
2022-12-11T01:20:52.681Z,49.33
2022-12-11T01:21:54.577Z,58.28
2022-12-11T01:22:58.961Z,66.47
2022-12-11T01:24:00.802Z,56.40
2022-12-11T01:25:02.991Z,53.03
2022-12-11T01:26:14.013Z,50.00
2022-12-11T01:27:15.701Z,52.38
2022-12-11T01:28:17.663Z,49.03
2022-12-11T01:29:19.288Z,51.25
2022-12-11T01:30:23.028Z,49.20
2022-12-11T01:31:25.344Z,57.10
2022-12-11T01:32:28.907Z,51.25
2022-12-11T01:33:30.578Z,49.58
2022-12-11T01:34:33.321Z,50.50
2022-12-11T01:35:35.047Z,49.80
2022-12-11T01:36:36.743Z,54.13
2022-12-11T01:37:38.869Z,54.45
2022-12-11T01:38:41.007Z,55.00
2022-12-11T01:39:43.062Z,61.85
2022-12-11T01:40:49.273Z,59.83
2022-12-11T01:41:51.393Z,61.03
2022-12-11T01:42:53.002Z,55.80
2022-12-11T01:44:20.567Z,55.17
2022-12-11T01:45:26.738Z,56.28
2022-12-11T01:46:31.004Z,58.63
2022-12-11T01:47:32.884Z,59.70
2022-12-11T01:48:39.203Z,58.05
2022-12-11T01:49:43.933Z,61.15
2022-12-11T01:50:50.596Z,59.92
2022-12-11T01:52:08.117Z,60.72
2022-12-11T01:53:15.406Z,53.33
2022-12-11T01:54:19.274Z,56.47
2022-12-11T01:55:22.014Z,56.85
2022-12-11T01:56:25.706Z,57.25
2022-12-11T01:57:27.443Z,67.32
2022-12-11T01:58:34.209Z,65.20
2022-12-11T01:59:39.927Z,61.03
2022-12-11T02:00:43.260Z,69.55
2022-12-11T02:01:48.363Z,69.25
2022-12-11T02:02:50.028Z,80.22
2022-12-11T02:03:54.902Z,86.90
2022-12-11T02:04:56.535Z,84.68
2022-12-11T02:06:02.721Z,87.50
2022-12-11T02:07:05.817Z,76.10
2022-12-11T02:08:08.589Z,104.30
2022-12-11T02:09:14.034Z,93.97
2022-12-11T02:10:16.628Z,95.95
2022-12-11T02:11:26.169Z,90.47
2022-12-11T02:12:40.726Z,92.95
2022-12-11T02:13:57.310Z,98.25
2022-12-11T02:15:17.687Z,109.78
2022-12-11T02:16:27.375Z,98.25
2022-12-11T02:17:51.835Z,103.32
2022-12-11T02:19:08.121Z,115.25
2022-12-11T02:20:17.518Z,104.22
2022-12-11T02:21:32.754Z,102.28
2022-12-11T02:22:54.147Z,111.82
2022-12-11T02:24:29.111Z,105.10
2022-12-11T02:25:52.771Z,106.10
2022-12-11T02:27:12.530Z,98.88
2022-12-11T02:28:24.066Z,104.03
2022-12-11T02:30:01.158Z,102.80
2022-12-11T02:31:09.467Z,94.25
2022-12-11T02:32:16.486Z,108.22
2022-12-11T02:33:26.808Z,99.20
2022-12-11T02:34:37.565Z,104.38
2022-12-11T02:35:45.791Z,98.95
2022-12-11T02:36:54.065Z,102.35
2022-12-11T02:38:00.733Z,102.38
2022-12-11T02:39:04.630Z,97.85
2022-12-11T02:40:11.376Z,94.32
2022-12-11T02:41:13.665Z,93.70
2022-12-11T02:42:16.556Z,98.45
2022-12-11T02:43:21.864Z,102.03
2022-12-11T02:44:29.812Z,101.15
2022-12-11T02:45:34.030Z,99.03
2022-12-11T02:46:37.181Z,91.32
2022-12-11T02:47:39.861Z,94.93
2022-12-11T02:48:43.307Z,94.13
2022-12-11T02:49:50.475Z,98.10
2022-12-11T02:50:56.542Z,97.22
2022-12-11T02:52:02.321Z,100.25
2022-12-11T02:53:08.035Z,98.68
2022-12-11T02:54:17.330Z,91.28
2022-12-11T02:55:20.894Z,102.80
2022-12-11T02:56:30.795Z,97.63
2022-12-11T02:57:45.764Z,92.88
2022-12-11T02:58:58.179Z,92.93
2022-12-11T03:00:00.526Z,105.75
2022-12-11T03:01:03.645Z,100.15
2022-12-11T03:02:05.777Z,100.72
2022-12-11T03:03:09.490Z,99.50
2022-12-11T03:04:11.343Z,104.30
2022-12-11T03:05:14.943Z,107.13
2022-12-11T03:06:20.651Z,96.07
2022-12-11T03:07:29.572Z,103.50
2022-12-11T03:08:32.347Z,103.70
2022-12-11T03:09:33.956Z,101.40
2022-12-11T03:10:36.187Z,94.72
2022-12-11T03:11:37.786Z,99.38
2022-12-11T03:12:42.759Z,100.28
2022-12-11T03:13:45.662Z,98.55
2022-12-11T03:14:50.129Z,97.72
2022-12-11T03:16:04.752Z,103.15
2022-12-11T03:17:18.228Z,96.70
2022-12-11T03:18:31.265Z,104.90
2022-12-11T03:19:43.772Z,96.47
2022-12-11T03:20:56.110Z,101.30
2022-12-11T03:22:00.878Z,97.95
2022-12-11T03:23:11.852Z,102.32
2022-12-11T03:24:44.097Z,106.72
2022-12-11T03:25:56.507Z,111.57
2022-12-11T03:27:11.115Z,99.47
2022-12-11T03:28:24.071Z,100.15
2022-12-11T03:29:38.139Z,96.85
2022-12-11T03:30:42.297Z,104.47
2022-12-11T03:31:50.200Z,98.93
2022-12-11T03:32:57.495Z,99.60
2022-12-11T03:34:08.702Z,100.80
2022-12-11T03:35:21.530Z,110.93
2022-12-11T03:36:27.159Z,103.07
2022-12-11T03:37:33.277Z,106.50
2022-12-11T03:39:05.421Z,96.75
2022-12-11T03:40:13.268Z,101.20
2022-12-11T03:41:22.479Z,107.60
2022-12-11T03:42:26.823Z,100.88
2022-12-11T03:43:30.187Z,98.38
2022-12-11T03:44:33.564Z,101.47
2022-12-11T03:45:37.471Z,104.03
2022-12-11T03:46:41.459Z,101.32
2022-12-11T03:47:45.246Z,105.28
2022-12-11T03:48:50.728Z,100.95
2022-12-11T03:49:53.971Z,107.13
2022-12-11T03:50:57.439Z,94.95
2022-12-11T03:52:01.920Z,106.60
2022-12-11T03:53:06.314Z,105.28
2022-12-11T03:54:08.233Z,98.13
2022-12-11T03:55:15.234Z,96.47
2022-12-11T03:56:19.978Z,110.05
2022-12-11T03:57:30.383Z,99.93
2022-12-11T03:58:32.517Z,107.20
2022-12-11T03:59:35.093Z,112.53
2022-12-11T04:00:37.549Z,104.57
2022-12-11T04:01:40.081Z,100.30
2022-12-11T04:02:42.616Z,102.53
2022-12-11T04:03:44.606Z,102.03
2022-12-11T04:04:46.235Z,107.22
2022-12-11T04:05:53.797Z,106.88
2022-12-11T04:06:55.378Z,107.07
2022-12-11T04:07:56.976Z,108.03
2022-12-11T04:08:58.809Z,114.35
2022-12-11T04:10:02.554Z,109.43
2022-12-11T04:11:23.380Z,113.35
2022-12-11T04:12:25.202Z,113.28
2022-12-11T04:13:26.912Z,106.80
2022-12-11T04:14:47.546Z,106.30
2022-12-11T04:15:50.741Z,111.97
2022-12-11T04:16:53.465Z,117.43
2022-12-11T04:18:13.433Z,117.88
2022-12-11T04:19:33.816Z,118.75
2022-12-11T04:20:53.981Z,118.07
2022-12-11T04:22:34.105Z,117.30
2022-12-11T04:23:56.408Z,113.00
2022-12-11T04:24:58.203Z,111.03
2022-12-11T04:26:09.417Z,105.95
2022-12-11T04:27:11.460Z,113.75
2022-12-11T04:28:13.286Z,114.38
2022-12-11T04:29:17.060Z,113.60
2022-12-11T04:30:23.013Z,117.75
2022-12-11T04:31:24.721Z,107.05
2022-12-11T04:32:26.349Z,108.57
2022-12-11T04:33:28.710Z,104.88
2022-12-11T04:34:30.548Z,116.30
2022-12-11T04:35:32.801Z,110.13
2022-12-11T04:36:34.654Z,107.32
2022-12-11T04:37:36.935Z,123.03
2022-12-11T04:38:39.300Z,124.78
2022-12-11T04:39:41.229Z,110.50
2022-12-11T04:40:42.952Z,104.00
2022-12-11T04:41:44.889Z,101.57
2022-12-11T04:42:46.956Z,104.97
2022-12-11T04:43:48.797Z,107.70
2022-12-11T04:44:51.012Z,105.28
2022-12-11T04:46:01.484Z,118.25
2022-12-11T04:47:03.771Z,111.78
2022-12-11T04:48:05.555Z,133.52
2022-12-11T04:49:07.190Z,107.50
2022-12-11T04:50:11.588Z,115.28
2022-12-11T04:51:14.594Z,116.45
2022-12-11T04:52:18.061Z,114.90
2022-12-11T04:53:19.598Z,116.07
2022-12-11T04:54:21.499Z,125.57
2022-12-11T04:55:24.505Z,109.43
2022-12-11T04:56:26.233Z,98.97
2022-12-11T04:57:30.314Z,105.50
2022-12-11T04:58:32.073Z,102.28
2022-12-11T04:59:33.722Z,101.43
2022-12-11T05:00:38.058Z,110.75
2022-12-11T05:01:39.954Z,110.07
2022-12-11T05:02:42.112Z,103.75
2022-12-11T05:03:44.345Z,98.85
2022-12-11T05:04:46.345Z,101.28
2022-12-11T05:05:54.754Z,105.55
2022-12-11T05:06:56.545Z,111.68
2022-12-11T05:07:58.343Z,114.20
2022-12-11T05:09:00.337Z,103.18
2022-12-11T05:10:01.917Z,112.32
2022-12-11T05:11:06.785Z,115.28
2022-12-11T05:12:08.360Z,120.07
2022-12-11T05:13:10.220Z,118.95
2022-12-11T05:14:12.080Z,118.90
2022-12-11T05:15:14.149Z,121.10
2022-12-11T05:16:17.219Z,115.22
2022-12-11T05:17:20.033Z,115.00
2022-12-11T05:18:24.463Z,125.40
2022-12-11T05:19:26.337Z,131.63
2022-12-11T05:20:28.438Z,132.55
2022-12-11T05:21:34.799Z,132.18
2022-12-11T05:22:38.243Z,130.65
2022-12-11T05:23:41.441Z,130.73
2022-12-11T05:24:43.475Z,134.88
2022-12-11T05:25:52.405Z,138.07
2022-12-11T05:26:53.959Z,125.68
2022-12-11T05:27:55.683Z,120.90
2022-12-11T05:28:57.346Z,129.93
2022-12-11T05:29:59.905Z,130.95
2022-12-11T05:31:04.874Z,134.38
2022-12-11T05:32:06.707Z,127.65
2022-12-11T05:33:08.498Z,138.60
2022-12-11T05:34:10.583Z,127.80
2022-12-11T05:35:12.743Z,135.43
2022-12-11T05:36:19.255Z,137.10
2022-12-11T05:37:21.290Z,127.13
2022-12-11T05:38:24.941Z,138.07
2022-12-11T05:39:26.996Z,132.85
2022-12-11T05:40:28.926Z,136.52
2022-12-11T05:41:32.991Z,132.02
2022-12-11T05:42:35.046Z,132.65
2022-12-11T05:43:37.110Z,132.50
2022-12-11T05:44:39.043Z,130.85
2022-12-11T05:45:40.897Z,134.85
2022-12-11T05:46:46.496Z,129.25
2022-12-11T05:47:48.152Z,131.05
2022-12-11T05:48:52.107Z,118.43
2022-12-11T05:49:53.950Z,123.55
2022-12-11T05:51:00.304Z,122.65
2022-12-11T05:52:01.845Z,125.15
2022-12-11T05:53:05.431Z,121.55
2022-12-11T05:54:07.547Z,132.55
2022-12-11T05:55:09.963Z,118.45
2022-12-11T05:56:15.592Z,119.50
2022-12-11T05:57:17.646Z,123.32
2022-12-11T05:58:19.821Z,125.93
2022-12-11T05:59:21.560Z,120.38
2022-12-11T06:00:23.172Z,129.20
2022-12-11T06:01:34.100Z,133.90
2022-12-11T06:02:37.732Z,119.35
2022-12-11T06:03:39.494Z,119.68
2022-12-11T06:04:41.722Z,125.15
2022-12-11T06:05:43.399Z,124.00
2022-12-11T06:06:45.157Z,115.95
2022-12-11T06:07:46.996Z,123.32
2022-12-11T06:08:52.645Z,128.77
2022-12-11T06:09:54.366Z,126.97
2022-12-11T06:10:56.259Z,120.03
2022-12-11T06:11:58.686Z,121.57
2022-12-11T06:13:00.701Z,131.25
2022-12-11T06:14:03.812Z,110.95
2022-12-11T06:15:06.323Z,119.22
2022-12-11T06:16:09.349Z,120.00
2022-12-11T06:17:11.273Z,123.00
2022-12-11T06:18:13.228Z,121.93
2022-12-11T06:19:20.287Z,123.15
2022-12-11T06:20:22.334Z,121.68
2022-12-11T06:21:28.636Z,115.05
2022-12-11T06:22:30.588Z,121.60
2022-12-11T06:23:32.440Z,110.18
2022-12-11T06:24:34.086Z,114.30
2022-12-11T06:25:39.931Z,103.88
2022-12-11T06:26:44.758Z,117.85
2022-12-11T06:27:46.746Z,121.70
2022-12-11T06:28:49.482Z,115.47
2022-12-11T06:29:53.259Z,106.75
2022-12-11T06:30:56.172Z,116.00
2022-12-11T06:31:58.497Z,120.45
2022-12-11T06:33:00.690Z,122.50
2022-12-11T06:34:02.552Z,123.63
2022-12-11T06:35:05.189Z,127.68
2022-12-11T06:36:10.433Z,125.72
2022-12-11T06:37:12.363Z,115.95
2022-12-11T06:38:14.169Z,120.30
2022-12-11T06:39:16.036Z,110.65
2022-12-11T06:40:17.737Z,125.03
2022-12-11T06:41:20.551Z,127.93
2022-12-11T06:42:22.337Z,122.85
2022-12-11T06:43:24.823Z,123.40
2022-12-11T06:44:26.447Z,133.40
2022-12-11T06:45:28.734Z,148.35
2022-12-11T06:46:30.488Z,131.48
2022-12-11T06:47:33.362Z,140.68
2022-12-11T06:48:37.469Z,140.05
2022-12-11T06:49:39.381Z,121.55
2022-12-11T06:50:41.070Z,131.90
2022-12-11T06:51:46.845Z,139.95
2022-12-11T06:52:48.435Z,149.60
2022-12-11T06:53:56.827Z,149.30
2022-12-11T06:55:00.138Z,134.68
2022-12-11T06:56:03.810Z,140.75
2022-12-11T06:57:05.878Z,147.45
2022-12-11T06:58:10.021Z,153.27
2022-12-11T06:59:14.867Z,155.60
2022-12-11T07:00:16.805Z,148.90
2022-12-11T07:01:21.487Z,141.85
2022-12-11T07:02:26.065Z,145.32
2022-12-11T07:03:28.703Z,141.88
2022-12-11T07:04:31.123Z,148.45
2022-12-11T07:05:34.659Z,149.05
2022-12-11T07:06:36.375Z,149.77
2022-12-11T07:07:39.530Z,139.63
2022-12-11T07:08:44.498Z,138.13
2022-12-11T07:09:46.227Z,137.30
2022-12-11T07:10:48.433Z,140.13
2022-12-11T07:11:51.991Z,137.82
2022-12-11T07:12:54.518Z,138.88
2022-12-11T07:14:00.104Z,139.05
2022-12-11T07:15:02.035Z,142.73
2022-12-11T07:16:10.048Z,141.70
2022-12-11T07:17:11.785Z,141.30
2022-12-11T07:18:14.865Z,143.45
2022-12-11T07:19:17.129Z,134.23
2022-12-11T07:20:37.494Z,147.25
2022-12-11T07:21:42.660Z,125.32
2022-12-11T07:22:52.653Z,143.68
2022-12-11T07:23:57.772Z,134.55
2022-12-11T07:25:06.321Z,132.38
2022-12-11T07:26:16.993Z,139.50
2022-12-11T07:27:19.788Z,126.18
2022-12-11T07:28:21.495Z,126.50
2022-12-11T07:29:23.262Z,122.03
2022-12-11T07:30:27.346Z,121.18
2022-12-11T07:31:31.644Z,120.93
2022-12-11T07:32:33.414Z,111.93
2022-12-11T07:33:38.654Z,117.20
2022-12-11T07:34:51.424Z,118.75
2022-12-11T07:35:55.170Z,119.57
2022-12-11T07:36:56.755Z,140.32
2022-12-11T07:37:59.861Z,127.28
2022-12-11T07:39:01.601Z,130.98
2022-12-11T07:40:12.640Z,129.80
2022-12-11T07:41:17.875Z,141.85
2022-12-11T07:42:19.765Z,129.68
2022-12-11T07:43:21.738Z,130.73
2022-12-11T07:44:23.572Z,131.23
2022-12-11T07:45:26.464Z,137.95
2022-12-11T07:46:30.085Z,140.20
2022-12-11T07:47:31.984Z,119.95
2022-12-11T07:48:43.112Z,110.05
2022-12-11T07:49:44.999Z,116.13
2022-12-11T07:50:47.041Z,130.40
2022-12-11T07:51:48.866Z,128.43
2022-12-11T07:52:50.363Z,126.55
2022-12-11T07:53:54.788Z,121.78
2022-12-11T07:54:56.876Z,133.07
2022-12-11T07:55:59.890Z,134.48
2022-12-11T07:57:02.024Z,136.68
2022-12-11T07:58:04.490Z,131.90
2022-12-11T07:59:06.918Z,119.75
2022-12-11T08:00:09.161Z,127.53
2022-12-11T08:01:22.464Z,139.07
2022-12-11T08:02:24.361Z,136.27
2022-12-11T08:03:26.126Z,128.65
2022-12-11T08:04:28.475Z,131.32
2022-12-11T08:05:30.841Z,134.77
2022-12-11T08:06:35.090Z,142.85
2022-12-11T08:07:38.241Z,141.35
2022-12-11T08:08:41.478Z,137.90
2022-12-11T08:09:43.394Z,142.40
2022-12-11T08:10:48.344Z,123.38
2022-12-11T08:11:51.501Z,133.25
2022-12-11T08:12:59.899Z,131.30
2022-12-11T08:14:03.493Z,120.57
2022-12-11T08:15:06.660Z,111.40
2022-12-11T08:16:11.975Z,114.55
2022-12-11T08:17:14.272Z,113.20
2022-12-11T08:18:17.742Z,117.05
2022-12-11T08:19:20.684Z,121.55
2022-12-11T08:20:24.133Z,118.75
2022-12-11T08:21:31.032Z,117.05
2022-12-11T08:22:33.475Z,105.78
2022-12-11T08:23:35.308Z,114.60
2022-12-11T08:24:37.005Z,113.30
2022-12-11T08:25:43.117Z,113.30
2022-12-11T08:26:44.731Z,103.95
2022-12-11T08:27:46.319Z,108.28
2022-12-11T08:28:48.180Z,105.38
2022-12-11T08:29:49.761Z,106.80
2022-12-11T08:30:51.537Z,108.82
2022-12-11T08:31:53.556Z,103.88
2022-12-11T08:32:55.493Z,112.40
2022-12-11T08:33:57.864Z,89.60
2022-12-11T08:34:59.664Z,106.57
2022-12-11T08:36:08.219Z,95.80
2022-12-11T08:37:09.863Z,101.03
2022-12-11T08:38:15.322Z,104.03
2022-12-11T08:39:17.121Z,100.30
2022-12-11T08:40:18.870Z,103.47
2022-12-11T08:41:23.158Z,88.68
2022-12-11T08:42:24.826Z,94.03
2022-12-11T08:43:26.779Z,101.93
2022-12-11T08:44:28.548Z,91.82
2022-12-11T08:45:34.523Z,93.63
2022-12-11T08:46:37.407Z,91.95
2022-12-11T08:47:39.012Z,100.45
2022-12-11T08:48:42.732Z,100.72
2022-12-11T08:49:44.728Z,94.05
2022-12-11T08:50:46.583Z,97.07
2022-12-11T08:51:48.367Z,106.22
2022-12-11T08:52:51.291Z,100.65
2022-12-11T08:53:55.401Z,93.47
2022-12-11T08:54:58.302Z,98.15
2022-12-11T08:56:03.796Z,90.72
2022-12-11T08:57:06.548Z,88.93
2022-12-11T08:58:09.100Z,90.10
2022-12-11T08:59:11.111Z,99.97
2022-12-11T09:00:14.334Z,97.93
2022-12-11T09:01:21.815Z,99.18
2022-12-11T09:02:24.066Z,104.38
2022-12-11T09:03:26.379Z,105.40
2022-12-11T09:04:28.346Z,92.68
2022-12-11T09:05:33.844Z,96.40
2022-12-11T09:06:36.118Z,108.93
2022-12-11T09:07:42.503Z,97.05
2022-12-11T09:08:51.953Z,111.18
2022-12-11T09:09:55.914Z,95.13
2022-12-11T09:11:06.935Z,91.93
2022-12-11T09:12:10.092Z,95.35
2022-12-11T09:13:11.716Z,91.30
2022-12-11T09:14:13.507Z,87.78
2022-12-11T09:15:15.537Z,94.18
2022-12-11T09:16:20.864Z,87.30
2022-12-11T09:17:22.861Z,92.55
2022-12-11T09:18:24.731Z,90.50
2022-12-11T09:19:32.083Z,86.93
2022-12-11T09:20:37.236Z,86.40
2022-12-11T09:21:38.871Z,85.05
2022-12-11T09:22:42.962Z,84.88
2022-12-11T09:23:45.486Z,77.32
2022-12-11T09:24:47.409Z,83.28
2022-12-11T09:25:48.937Z,80.82
2022-12-11T09:26:50.774Z,81.43
2022-12-11T09:27:52.310Z,80.22
2022-12-11T09:28:55.354Z,82.70
2022-12-11T09:29:57.015Z,79.13
2022-12-11T09:30:59.093Z,72.57
2022-12-11T09:32:01.005Z,78.88
2022-12-11T09:33:02.940Z,74.05
2022-12-11T09:34:08.087Z,68.20
2022-12-11T09:35:10.675Z,72.72
2022-12-11T09:36:13.453Z,68.38
2022-12-11T09:37:15.293Z,69.68
2022-12-11T09:38:17.242Z,70.57
2022-12-11T09:39:19.715Z,72.15
2022-12-11T09:40:21.438Z,71.40
2022-12-11T09:41:23.184Z,79.68
2022-12-11T09:43:05.317Z,80.28
2022-12-11T09:44:23.402Z,74.30
2022-12-11T09:45:25.304Z,77.95
2022-12-11T09:46:33.909Z,79.55
2022-12-11T09:47:41.834Z,78.60
2022-12-11T09:48:49.115Z,82.32
2022-12-11T09:49:58.806Z,77.53
2022-12-11T09:51:13.165Z,81.25
2022-12-11T09:52:24.027Z,66.22
2022-12-11T09:53:34.430Z,70.78
2022-12-11T09:54:37.202Z,67.43
2022-12-11T09:55:51.336Z,73.07
2022-12-11T09:57:03.774Z,63.00
2022-12-11T09:58:05.356Z,60.95
2022-12-11T09:59:11.708Z,68.18
2022-12-11T10:00:24.786Z,64.03
2022-12-11T10:01:56.088Z,70.35
2022-12-11T10:03:16.572Z,61.53
2022-12-11T10:04:36.268Z,66.90
2022-12-11T10:05:44.326Z,65.88
2022-12-11T10:07:06.413Z,63.50
2022-12-11T10:08:46.468Z,63.45
2022-12-11T10:10:07.701Z,65.72
2022-12-11T10:11:56.092Z,56.97
2022-12-11T10:13:09.257Z,58.58
2022-12-11T10:14:22.792Z,59.15
2022-12-11T10:15:40.159Z,61.95
2022-12-11T10:16:53.093Z,64.05
2022-12-11T10:18:04.391Z,65.00
2022-12-11T10:19:25.015Z,64.22
2022-12-11T10:20:33.607Z,66.53
2022-12-11T10:21:42.677Z,62.08
2022-12-11T10:22:45.656Z,68.22
2022-12-11T10:24:03.694Z,71.07
2022-12-11T10:25:18.963Z,62.28
2022-12-11T10:26:23.401Z,71.47
2022-12-11T10:27:33.110Z,53.75
2022-12-11T10:28:35.748Z,55.75
2022-12-11T10:29:37.532Z,57.17
2022-12-11T10:30:46.121Z,56.33
2022-12-11T10:31:54.703Z,50.13
2022-12-11T10:33:22.818Z,55.33
2022-12-11T10:34:32.137Z,45.42
2022-12-11T10:35:40.943Z,48.28
2022-12-11T10:36:43.504Z,47.40
2022-12-11T10:37:45.537Z,46.83
2022-12-11T10:38:47.617Z,47.70
2022-12-11T10:39:49.544Z,49.00
2022-12-11T10:40:56.012Z,46.78
2022-12-11T10:41:58.616Z,48.40
2022-12-11T10:43:01.332Z,47.50
2022-12-11T10:44:15.654Z,46.40
2022-12-11T10:45:17.854Z,46.65
2022-12-11T10:46:21.072Z,46.35
2022-12-11T10:47:24.102Z,44.13
2022-12-11T10:48:26.776Z,45.53
2022-12-11T10:49:31.774Z,49.15
2022-12-11T10:50:34.313Z,41.55
2022-12-11T10:51:38.146Z,42.33
2022-12-11T10:52:45.236Z,37.58
2022-12-11T10:53:53.855Z,43.30
2022-12-11T10:55:02.582Z,45.03
2022-12-11T10:56:04.935Z,37.95
2022-12-11T10:57:14.235Z,40.85
2022-12-11T10:58:23.212Z,43.55
2022-12-11T10:59:45.319Z,42.17
2022-12-11T11:01:10.089Z,42.13
2022-12-11T11:02:29.004Z,45.00
2022-12-11T11:03:32.597Z,44.33
2022-12-11T11:04:41.808Z,45.95
2022-12-11T11:05:49.188Z,48.92
2022-12-11T11:07:21.085Z,43.50
2022-12-11T11:08:24.251Z,43.47
2022-12-11T11:09:36.383Z,46.40
2022-12-11T11:10:38.432Z,42.85
2022-12-11T11:11:40.475Z,43.95
2022-12-11T11:12:47.992Z,49.17
2022-12-11T11:13:51.005Z,42.53
2022-12-11T11:15:06.054Z,47.13
2022-12-11T11:16:13.581Z,60.72
2022-12-11T11:17:17.512Z,41.35
2022-12-11T11:18:28.766Z,41.97
2022-12-11T11:19:36.665Z,43.97
2022-12-11T11:20:47.830Z,43.67
2022-12-11T11:21:59.667Z,51.67
2022-12-11T11:23:11.647Z,50.28
2022-12-11T11:24:27.029Z,48.35
2022-12-11T11:25:31.462Z,48.65
2022-12-11T11:27:11.247Z,48.15
2022-12-11T11:28:04.123Z,46.47
2022-12-11T11:29:07.241Z,50.45
2022-12-11T11:30:30.865Z,49.85
2022-12-11T11:31:35.942Z,46.65
2022-12-11T11:32:39.808Z,55.20
2022-12-11T11:34:03.308Z,47.85
2022-12-11T11:35:11.673Z,54.88
2022-12-11T11:36:23.478Z,48.08
2022-12-11T11:37:34.635Z,51.33
2022-12-11T11:38:40.523Z,45.55
2022-12-11T11:39:45.273Z,48.60
2022-12-11T11:41:14.672Z,51.10
2022-12-11T11:42:27.588Z,45.83
2022-12-11T11:43:32.288Z,54.25
2022-12-11T11:44:41.529Z,52.03
2022-12-11T11:46:11.640Z,47.35
2022-12-11T11:47:37.743Z,47.83
2022-12-11T11:48:48.923Z,44.78
2022-12-11T11:50:03.752Z,43.03
2022-12-11T11:51:17.055Z,44.83
2022-12-11T11:52:35.786Z,44.10
2022-12-11T11:53:40.653Z,39.13
2022-12-11T11:55:11.100Z,42.67
2022-12-11T11:56:36.491Z,41.40
2022-12-11T11:57:58.679Z,45.13
2022-12-11T11:59:15.838Z,45.53
2022-12-11T12:00:18.686Z,40.92
2022-12-11T12:01:22.283Z,39.53
2022-12-11T12:02:24.368Z,39.17
2022-12-11T12:03:27.901Z,41.53
2022-12-11T12:04:35.443Z,44.08
2022-12-11T12:06:06.227Z,43.35
2022-12-11T12:07:16.319Z,47.10
2022-12-11T12:08:27.220Z,42.80
2022-12-11T12:09:38.908Z,40.42
2022-12-11T12:11:23.183Z,50.65
2022-12-11T12:12:43.864Z,42.70
2022-12-11T12:14:17.387Z,46.35
2022-12-11T12:15:35.715Z,46.72
2022-12-11T12:16:56.427Z,39.47
2022-12-11T12:18:16.553Z,47.90
2022-12-11T12:19:37.024Z,38.67
2022-12-11T12:20:39.671Z,45.75
2022-12-11T12:21:47.035Z,44.20
2022-12-11T12:23:05.450Z,44.72
2022-12-11T12:24:11.451Z,44.38
2022-12-11T12:25:37.781Z,71.72
2022-12-11T12:26:50.566Z,115.10
2022-12-11T12:28:11.074Z,63.97
2022-12-11T12:29:48.630Z,48.88
2022-12-11T12:31:08.392Z,47.95
2022-12-11T12:32:27.309Z,45.13
2022-12-11T12:33:35.154Z,48.00
2022-12-11T12:34:44.747Z,49.83
2022-12-11T12:36:03.455Z,45.58
2022-12-11T12:37:29.572Z,49.38
2022-12-11T12:39:10.715Z,51.83
2022-12-11T12:40:37.087Z,45.55
2022-12-11T12:42:27.428Z,47.63
2022-12-11T12:44:18.132Z,42.80
2022-12-11T12:46:07.227Z,44.38
2022-12-11T12:47:15.357Z,40.28
2022-12-11T12:48:17.539Z,41.92
2022-12-11T12:49:42.918Z,45.67
2022-12-11T12:50:48.901Z,43.90
2022-12-11T12:51:52.373Z,42.45
2022-12-11T12:52:55.634Z,40.67
2022-12-11T12:54:00.707Z,45.13
2022-12-11T12:55:26.021Z,50.00
2022-12-11T12:56:30.645Z,39.60
2022-12-11T12:57:35.366Z,48.88
2022-12-11T12:58:45.691Z,41.47
2022-12-11T12:59:54.326Z,45.13
2022-12-11T13:01:12.208Z,41.03
2022-12-11T13:02:17.931Z,50.78
2022-12-11T13:03:30.552Z,48.75
2022-12-11T13:04:56.853Z,38.38
2022-12-11T13:06:03.534Z,43.63
2022-12-11T13:07:20.569Z,41.50
2022-12-11T13:08:34.697Z,49.10
2022-12-11T13:09:40.763Z,44.90
2022-12-11T13:10:43.689Z,44.28
2022-12-11T13:11:47.200Z,50.45
2022-12-11T13:12:49.410Z,50.33
2022-12-11T13:14:28.720Z,47.67
2022-12-11T13:15:31.470Z,53.90
2022-12-11T13:16:44.377Z,46.95
2022-12-11T13:17:46.196Z,46.72
2022-12-11T13:18:49.314Z,45.95
2022-12-11T13:20:09.710Z,48.58
2022-12-11T13:21:34.016Z,43.22
2022-12-11T13:22:35.770Z,46.90
2022-12-11T13:23:40.583Z,52.17
2022-12-11T13:25:04.766Z,57.42
2022-12-11T13:26:06.455Z,46.05
2022-12-11T13:27:22.383Z,42.72
2022-12-11T13:28:27.844Z,46.28
2022-12-11T13:29:40.445Z,46.75
2022-12-11T13:30:43.774Z,44.45
2022-12-11T13:31:45.777Z,43.50
2022-12-11T13:33:07.417Z,49.00
2022-12-11T13:34:17.879Z,51.03
2022-12-11T13:35:20.572Z,43.40
2022-12-11T13:36:36.168Z,45.28
2022-12-11T13:37:44.746Z,45.50
2022-12-11T13:38:51.903Z,45.42
2022-12-11T13:39:54.925Z,44.67
2022-12-11T13:40:57.873Z,46.10
2022-12-11T13:42:05.627Z,45.63
2022-12-11T13:43:17.784Z,45.80
2022-12-11T13:44:33.610Z,43.92
2022-12-11T13:45:55.375Z,49.80
2022-12-11T13:47:00.009Z,47.45
2022-12-11T13:48:02.301Z,50.33
2022-12-11T13:49:07.294Z,47.55
2022-12-11T13:50:22.071Z,47.20
2022-12-11T13:51:26.079Z,47.63
2022-12-11T13:52:28.679Z,47.15
2022-12-11T13:53:30.509Z,53.80
2022-12-11T13:54:36.828Z,48.25
2022-12-11T13:55:38.606Z,45.35
2022-12-11T13:56:40.716Z,44.38
2022-12-11T13:57:46.409Z,52.33
2022-12-11T13:58:49.795Z,53.65
2022-12-11T13:59:54.548Z,44.25
2022-12-11T14:01:14.502Z,46.90
2022-12-11T14:02:24.257Z,45.17
2022-12-11T14:03:26.208Z,44.40
2022-12-11T14:04:29.576Z,45.10
2022-12-11T14:05:32.030Z,46.10
2022-12-11T14:06:35.925Z,41.67
2022-12-11T14:07:48.653Z,46.40
2022-12-11T14:08:55.315Z,46.80
2022-12-11T14:10:10.120Z,44.55